9VA7 weather

CLOSED Fire Station No. 14 Heliport
Chester, Virginia, United States

Public forecast

Using degrees Fahrenheit for public forecast. Weather courtesy of forecast.io.

METAR (pilot weather report)

Closest report is Chesterfield County Airport, 6.1 nm (11.2 km) WNW. Retrieved 2019/01/17 16:56 UTC (14 minutes ago):

KFCI 171656Z AUTO 12008KT 10SM OVC039 04/M03 A3033 RMK AO2 SLP289 T00391033

TAF (pilot weather forecast)

Closest forecast is Richmond International Airport, 10.1 nm (18.7 km) NNE. Retrieved 2019/01/17 12:22 UTC (5 hours ago):

TAF KRIC 171120Z 1712/1812 00000KT P6SM BKN045 FM171400 05004KT P6SM BKN080 FM172200 13004KT P6SM OVC060 FM180200 16004KT 6SM -RA OVC060 FM180500 17005KT 6SM -RA OVC030 FM180700 20005KT P6SM OVC025